sensor_id;sensor_type;location;lat;lon;timestamp;P1;durP1;ratioP1;P2;durP2;ratioP2
11422;SDS011;5768;51.476;7.210;2023-05-10T00:02:27;3.67;;;3.38;;
11422;SDS011;5768;51.476;7.210;2023-05-10T00:07:29;4.18;;;3.83;;
11422;SDS011;5768;51.476;7.210;2023-05-10T00:12:31;4.05;;;3.75;;
11422;SDS011;5768;51.476;7.210;2023-05-10T00:17:35;4.72;;;4.32;;
11422;SDS011;5768;51.476;7.210;2023-05-10T00:22:37;5.28;;;4.32;;
11422;SDS011;5768;51.476;7.210;2023-05-10T00:27:39;4.60;;;4.20;;
11422;SDS011;5768;51.476;7.210;2023-05-10T00:32:43;5.72;;;5.22;;
11422;SDS011;5768;51.476;7.210;2023-05-10T00:37:45;5.85;;;5.10;;
11422;SDS011;5768;51.476;7.210;2023-05-10T00:42:47;6.95;;;6.32;;
11422;SDS011;5768;51.476;7.210;2023-05-10T00:47:51;7.45;;;6.75;;
11422;SDS011;5768;51.476;7.210;2023-05-10T00:52:55;7.22;;;6.53;;
11422;SDS011;5768;51.476;7.210;2023-05-10T00:57:57;7.70;;;7.00;;
11422;SDS011;5768;51.476;7.210;2023-05-10T01:03:01;8.15;;;7.43;;
11422;SDS011;5768;51.476;7.210;2023-05-10T01:08:04;8.23;;;7.43;;
11422;SDS011;5768;51.476;7.210;2023-05-10T01:13:08;8.57;;;7.85;;
11422;SDS011;5768;51.476;7.210;2023-05-10T01:18:13;9.02;;;8.20;;
11422;SDS011;5768;51.476;7.210;2023-05-10T01:23:31;9.27;;;8.38;;
11422;SDS011;5768;51.476;7.210;2023-05-10T01:34:50;8.25;;;7.45;;
11422;SDS011;5768;51.476;7.210;2023-05-10T01:40:02;7.35;;;6.75;;
11422;SDS011;5768;51.476;7.210;2023-05-10T01:45:21;7.18;;;6.47;;
11422;SDS011;5768;51.476;7.210;2023-05-10T01:50:35;6.35;;;5.82;;
11422;SDS011;5768;51.476;7.210;2023-05-10T01:55:44;6.30;;;5.70;;
11422;SDS011;5768;51.476;7.210;2023-05-10T02:00:50;8.13;;;7.32;;
11422;SDS011;5768;51.476;7.210;2023-05-10T02:05:57;7.57;;;6.85;;
11422;SDS011;5768;51.476;7.210;2023-05-10T02:11:01;7.70;;;7.00;;
11422;SDS011;5768;51.476;7.210;2023-05-10T02:16:05;7.90;;;7.03;;
11422;SDS011;5768;51.476;7.210;2023-05-10T02:21:10;7.93;;;7.22;;
11422;SDS011;5768;51.476;7.210;2023-05-10T02:26:16;8.32;;;7.53;;
11422;SDS011;5768;51.476;7.210;2023-05-10T02:31:25;10.18;;;8.00;;
11422;SDS011;5768;51.476;7.210;2023-05-10T02:36:29;9.52;;;8.38;;
11422;SDS011;5768;51.476;7.210;2023-05-10T02:41:32;9.30;;;8.40;;
11422;SDS011;5768;51.476;7.210;2023-05-10T02:46:34;8.50;;;7.68;;
11422;SDS011;5768;51.476;7.210;2023-05-10T02:51:40;9.20;;;8.27;;
11422;SDS011;5768;51.476;7.210;2023-05-10T02:56:47;10.80;;;9.40;;
11422;SDS011;5768;51.476;7.210;2023-05-10T03:01:58;11.50;;;9.82;;
11422;SDS011;5768;51.476;7.210;2023-05-10T03:07:03;11.85;;;10.05;;
11422;SDS011;5768;51.476;7.210;2023-05-10T03:12:07;12.77;;;10.52;;
11422;SDS011;5768;51.476;7.210;2023-05-10T03:17:19;13.55;;;10.00;;
11422;SDS011;5768;51.476;7.210;2023-05-10T03:22:34;11.38;;;9.82;;
11422;SDS011;5768;51.476;7.210;2023-05-10T03:27:40;12.40;;;9.57;;
11422;SDS011;5768;51.476;7.210;2023-05-10T03:32:45;12.98;;;10.00;;
11422;SDS011;5768;51.476;7.210;2023-05-10T03:37:49;12.75;;;10.07;;
11422;SDS011;5768;51.476;7.210;2023-05-10T03:42:51;13.18;;;9.85;;
11422;SDS011;5768;51.476;7.210;2023-05-10T03:47:54;13.48;;;9.38;;
11422;SDS011;5768;51.476;7.210;2023-05-10T03:52:57;13.18;;;9.10;;
11422;SDS011;5768;51.476;7.210;2023-05-10T03:58:00;13.05;;;10.30;;
11422;SDS011;5768;51.476;7.210;2023-05-10T04:03:02;16.02;;;12.35;;
11422;SDS011;5768;51.476;7.210;2023-05-10T04:08:06;19.30;;;14.43;;
11422;SDS011;5768;51.476;7.210;2023-05-10T04:13:08;17.58;;;13.43;;
11422;SDS011;5768;51.476;7.210;2023-05-10T04:18:11;20.30;;;15.15;;
11422;SDS011;5768;51.476;7.210;2023-05-10T04:23:15;15.68;;;13.95;;
11422;SDS011;5768;51.476;7.210;2023-05-10T04:28:17;16.45;;;14.27;;
11422;SDS011;5768;51.476;7.210;2023-05-10T04:33:19;17.35;;;15.30;;
11422;SDS011;5768;51.476;7.210;2023-05-10T04:38:23;18.98;;;15.75;;
11422;SDS011;5768;51.476;7.210;2023-05-10T04:43:25;21.88;;;16.77;;
11422;SDS011;5768;51.476;7.210;2023-05-10T04:48:28;24.75;;;17.92;;
11422;SDS011;5768;51.476;7.210;2023-05-10T04:53:31;23.70;;;18.40;;
11422;SDS011;5768;51.476;7.210;2023-05-10T04:58:34;21.23;;;17.95;;
11422;SDS011;5768;51.476;7.210;2023-05-10T05:03:36;25.98;;;19.55;;
11422;SDS011;5768;51.476;7.210;2023-05-10T05:08:39;26.58;;;19.27;;
11422;SDS011;5768;51.476;7.210;2023-05-10T05:13:42;24.35;;;19.17;;
11422;SDS011;5768;51.476;7.210;2023-05-10T05:18:44;26.33;;;21.63;;
11422;SDS011;5768;51.476;7.210;2023-05-10T05:23:47;26.67;;;21.52;;
11422;SDS011;5768;51.476;7.210;2023-05-10T05:28:50;30.30;;;23.50;;
11422;SDS011;5768;51.476;7.210;2023-05-10T05:33:54;32.15;;;23.65;;
11422;SDS011;5768;51.476;7.210;2023-05-10T05:38:58;31.80;;;22.98;;
11422;SDS011;5768;51.476;7.210;2023-05-10T05:44:00;29.55;;;24.10;;
11422;SDS011;5768;51.476;7.210;2023-05-10T05:49:02;28.80;;;21.95;;
11422;SDS011;5768;51.476;7.210;2023-05-10T05:54:06;29.67;;;24.58;;
11422;SDS011;5768;51.476;7.210;2023-05-10T05:59:08;33.80;;;23.95;;
11422;SDS011;5768;51.476;7.210;2023-05-10T06:04:11;30.60;;;24.98;;
11422;SDS011;5768;51.476;7.210;2023-05-10T06:09:14;30.60;;;24.13;;
11422;SDS011;5768;51.476;7.210;2023-05-10T06:14:17;31.70;;;25.30;;
11422;SDS011;5768;51.476;7.210;2023-05-10T06:19:21;28.63;;;23.45;;
11422;SDS011;5768;51.476;7.210;2023-05-10T06:24:25;25.50;;;22.30;;
11422;SDS011;5768;51.476;7.210;2023-05-10T06:29:27;26.38;;;21.88;;
11422;SDS011;5768;51.476;7.210;2023-05-10T06:34:29;25.48;;;21.55;;
11422;SDS011;5768;51.476;7.210;2023-05-10T06:39:33;24.90;;;19.98;;
11422;SDS011;5768;51.476;7.210;2023-05-10T06:44:36;21.60;;;19.35;;
11422;SDS011;5768;51.476;7.210;2023-05-10T06:49:38;23.17;;;20.70;;
11422;SDS011;5768;51.476;7.210;2023-05-10T06:54:42;21.30;;;18.92;;
11422;SDS011;5768;51.476;7.210;2023-05-10T06:59:44;24.30;;;18.83;;
11422;SDS011;5768;51.476;7.210;2023-05-10T07:04:46;23.90;;;21.05;;
11422;SDS011;5768;51.476;7.210;2023-05-10T07:09:50;24.92;;;20.85;;
11422;SDS011;5768;51.476;7.210;2023-05-10T07:14:52;20.17;;;18.05;;
11422;SDS011;5768;51.476;7.210;2023-05-10T07:19:55;24.50;;;16.67;;
11422;SDS011;5768;51.476;7.210;2023-05-10T07:24:58;23.65;;;19.25;;
11422;SDS011;5768;51.476;7.210;2023-05-10T07:30:00;25.48;;;19.65;;
11422;SDS011;5768;51.476;7.210;2023-05-10T07:35:03;26.25;;;19.52;;
11422;SDS011;5768;51.476;7.210;2023-05-10T07:40:09;23.33;;;18.65;;
11422;SDS011;5768;51.476;7.210;2023-05-10T07:45:11;22.77;;;17.52;;
11422;SDS011;5768;51.476;7.210;2023-05-10T07:50:13;20.63;;;16.25;;
11422;SDS011;5768;51.476;7.210;2023-05-10T07:55:17;21.73;;;18.88;;
11422;SDS011;5768;51.476;7.210;2023-05-10T08:00:21;22.77;;;18.73;;
11422;SDS011;5768;51.476;7.210;2023-05-10T08:05:23;25.73;;;19.13;;
11422;SDS011;5768;51.476;7.210;2023-05-10T08:10:27;27.23;;;21.98;;
11422;SDS011;5768;51.476;7.210;2023-05-10T08:15:30;28.75;;;21.15;;
11422;SDS011;5768;51.476;7.210;2023-05-10T08:20:32;27.58;;;22.02;;
11422;SDS011;5768;51.476;7.210;2023-05-10T08:25:35;23.60;;;18.92;;
11422;SDS011;5768;51.476;7.210;2023-05-10T08:30:38;24.35;;;18.30;;
11422;SDS011;5768;51.476;7.210;2023-05-10T08:35:40;28.58;;;21.20;;
11422;SDS011;5768;51.476;7.210;2023-05-10T08:40:44;26.77;;;21.48;;
11422;SDS011;5768;51.476;7.210;2023-05-10T08:45:46;28.25;;;20.48;;
11422;SDS011;5768;51.476;7.210;2023-05-10T08:50:52;25.55;;;18.58;;
11422;SDS011;5768;51.476;7.210;2023-05-10T08:55:57;21.63;;;17.80;;
11422;SDS011;5768;51.476;7.210;2023-05-10T09:00:59;16.95;;;13.55;;
11422;SDS011;5768;51.476;7.210;2023-05-10T09:06:03;15.02;;;12.35;;
11422;SDS011;5768;51.476;7.210;2023-05-10T09:11:06;16.30;;;11.93;;
11422;SDS011;5768;51.476;7.210;2023-05-10T09:16:10;13.65;;;11.55;;
11422;SDS011;5768;51.476;7.210;2023-05-10T09:21:12;21.63;;;13.80;;
11422;SDS011;5768;51.476;7.210;2023-05-10T09:26:16;15.80;;;13.32;;
11422;SDS011;5768;51.476;7.210;2023-05-10T09:31:23;14.18;;;11.90;;
11422;SDS011;5768;51.476;7.210;2023-05-10T09:36:50;11.18;;;9.05;;
11422;SDS011;5768;51.476;7.210;2023-05-10T09:42:00;10.02;;;9.02;;
11422;SDS011;5768;51.476;7.210;2023-05-10T09:47:05;13.27;;;9.55;;
11422;SDS011;5768;51.476;7.210;2023-05-10T09:52:07;12.90;;;9.75;;
11422;SDS011;5768;51.476;7.210;2023-05-10T09:57:13;12.23;;;10.05;;
11422;SDS011;5768;51.476;7.210;2023-05-10T10:02:22;13.55;;;10.25;;
11422;SDS011;5768;51.476;7.210;2023-05-10T10:07:30;15.40;;;11.18;;
11422;SDS011;5768;51.476;7.210;2023-05-10T10:12:35;15.18;;;11.57;;
11422;SDS011;5768;51.476;7.210;2023-05-10T10:17:37;20.67;;;15.05;;
11422;SDS011;5768;51.476;7.210;2023-05-10T10:22:40;17.23;;;13.60;;
11422;SDS011;5768;51.476;7.210;2023-05-10T10:27:47;19.20;;;15.27;;
11422;SDS011;5768;51.476;7.210;2023-05-10T10:33:16;16.60;;;12.35;;
11422;SDS011;5768;51.476;7.210;2023-05-10T10:38:38;15.27;;;12.32;;
11422;SDS011;5768;51.476;7.210;2023-05-10T10:49:48;15.18;;;12.25;;
11422;SDS011;5768;51.476;7.210;2023-05-10T10:54:54;14.55;;;11.35;;
11422;SDS011;5768;51.476;7.210;2023-05-10T11:00:20;15.02;;;12.98;;
11422;SDS011;5768;51.476;7.210;2023-05-10T11:05:38;16.00;;;13.00;;
11422;SDS011;5768;51.476;7.210;2023-05-10T11:10:49;12.32;;;11.00;;
11422;SDS011;5768;51.476;7.210;2023-05-10T11:15:56;14.00;;;12.38;;
11422;SDS011;5768;51.476;7.210;2023-05-10T11:21:00;15.20;;;12.07;;
11422;SDS011;5768;51.476;7.210;2023-05-10T11:26:07;14.82;;;13.10;;
11422;SDS011;5768;51.476;7.210;2023-05-10T11:31:14;13.00;;;11.30;;
11422;SDS011;5768;51.476;7.210;2023-05-10T11:36:18;14.95;;;11.30;;
11422;SDS011;5768;51.476;7.210;2023-05-10T11:41:23;10.98;;;8.88;;
11422;SDS011;5768;51.476;7.210;2023-05-10T11:46:29;11.20;;;9.75;;
11422;SDS011;5768;51.476;7.210;2023-05-10T11:51:33;10.25;;;8.45;;
11422;SDS011;5768;51.476;7.210;2023-05-10T11:56:37;11.48;;;9.50;;
11422;SDS011;5768;51.476;7.210;2023-05-10T12:01:42;10.15;;;7.70;;
11422;SDS011;5768;51.476;7.210;2023-05-10T12:06:44;11.43;;;7.82;;
11422;SDS011;5768;51.476;7.210;2023-05-10T12:11:47;10.25;;;9.23;;
11422;SDS011;5768;51.476;7.210;2023-05-10T12:16:51;10.23;;;9.23;;
11422;SDS011;5768;51.476;7.210;2023-05-10T12:21:53;11.07;;;10.00;;
11422;SDS011;5768;51.476;7.210;2023-05-10T12:26:55;12.38;;;9.25;;
11422;SDS011;5768;51.476;7.210;2023-05-10T12:31:59;9.82;;;8.82;;
11422;SDS011;5768;51.476;7.210;2023-05-10T12:37:01;11.25;;;9.88;;
11422;SDS011;5768;51.476;7.210;2023-05-10T12:42:04;11.20;;;10.00;;
11422;SDS011;5768;51.476;7.210;2023-05-10T12:47:08;10.90;;;9.80;;
11422;SDS011;5768;51.476;7.210;2023-05-10T12:52:10;10.07;;;8.80;;
11422;SDS011;5768;51.476;7.210;2023-05-10T12:57:13;14.43;;;10.40;;
11422;SDS011;5768;51.476;7.210;2023-05-10T13:02:16;10.70;;;9.35;;
11422;SDS011;5768;51.476;7.210;2023-05-10T13:07:20;8.25;;;6.70;;
11422;SDS011;5768;51.476;7.210;2023-05-10T13:12:22;11.27;;;8.82;;
11422;SDS011;5768;51.476;7.210;2023-05-10T13:17:26;10.02;;;8.35;;
11422;SDS011;5768;51.476;7.210;2023-05-10T13:22:28;8.02;;;7.28;;
11422;SDS011;5768;51.476;7.210;2023-05-10T13:27:31;7.18;;;5.93;;
11422;SDS011;5768;51.476;7.210;2023-05-10T13:32:34;5.80;;;5.30;;
11422;SDS011;5768;51.476;7.210;2023-05-10T13:37:37;5.80;;;5.30;;
11422;SDS011;5768;51.476;7.210;2023-05-10T13:42:39;5.15;;;4.75;;
11422;SDS011;5768;51.476;7.210;2023-05-10T13:47:42;4.32;;;3.92;;
11422;SDS011;5768;51.476;7.210;2023-05-10T13:52:45;4.03;;;3.67;;
11422;SDS011;5768;51.476;7.210;2023-05-10T13:57:47;4.38;;;3.97;;
11422;SDS011;5768;51.476;7.210;2023-05-10T14:02:50;4.00;;;3.70;;
11422;SDS011;5768;51.476;7.210;2023-05-10T14:07:52;3.53;;;3.22;;
11422;SDS011;5768;51.476;7.210;2023-05-10T14:12:55;5.00;;;3.40;;
11422;SDS011;5768;51.476;7.210;2023-05-10T14:17:59;3.38;;;3.08;;
11422;SDS011;5768;51.476;7.210;2023-05-10T14:23:01;3.15;;;2.90;;
11422;SDS011;5768;51.476;7.210;2023-05-10T14:28:03;3.80;;;3.40;;
11422;SDS011;5768;51.476;7.210;2023-05-10T14:33:07;5.10;;;3.63;;
11422;SDS011;5768;51.476;7.210;2023-05-10T14:38:09;5.18;;;4.07;;
11422;SDS011;5768;51.476;7.210;2023-05-10T14:43:12;3.60;;;3.17;;
11422;SDS011;5768;51.476;7.210;2023-05-10T14:48:16;4.03;;;3.30;;
11422;SDS011;5768;51.476;7.210;2023-05-10T14:53:18;4.10;;;3.67;;
11422;SDS011;5768;51.476;7.210;2023-05-10T14:58:20;5.38;;;3.53;;
11422;SDS011;5768;51.476;7.210;2023-05-10T15:03:24;4.95;;;3.22;;
11422;SDS011;5768;51.476;7.210;2023-05-10T15:08:26;4.93;;;3.75;;
11422;SDS011;5768;51.476;7.210;2023-05-10T15:13:28;4.63;;;3.25;;
11422;SDS011;5768;51.476;7.210;2023-05-10T15:18:32;2.85;;;2.30;;
11422;SDS011;5768;51.476;7.210;2023-05-10T15:23:34;3.88;;;3.10;;
11422;SDS011;5768;51.476;7.210;2023-05-10T15:28:37;4.95;;;3.00;;
11422;SDS011;5768;51.476;7.210;2023-05-10T15:33:40;4.25;;;3.55;;
11422;SDS011;5768;51.476;7.210;2023-05-10T15:38:43;3.72;;;3.25;;
11422;SDS011;5768;51.476;7.210;2023-05-10T15:43:45;5.97;;;3.13;;
11422;SDS011;5768;51.476;7.210;2023-05-10T15:48:49;4.30;;;3.90;;
11422;SDS011;5768;51.476;7.210;2023-05-10T15:53:51;6.30;;;4.93;;
11422;SDS011;5768;51.476;7.210;2023-05-10T15:58:54;6.03;;;5.15;;
11422;SDS011;5768;51.476;7.210;2023-05-10T16:03:58;6.57;;;5.85;;
11422;SDS011;5768;51.476;7.210;2023-05-10T16:09:01;5.72;;;5.22;;
11422;SDS011;5768;51.476;7.210;2023-05-10T16:14:03;6.38;;;5.53;;
11422;SDS011;5768;51.476;7.210;2023-05-10T16:19:07;7.32;;;5.18;;
11422;SDS011;5768;51.476;7.210;2023-05-10T16:24:09;6.30;;;5.28;;
11422;SDS011;5768;51.476;7.210;2023-05-10T16:29:12;6.80;;;5.68;;
11422;SDS011;5768;51.476;7.210;2023-05-10T16:34:15;7.00;;;6.10;;
11422;SDS011;5768;51.476;7.210;2023-05-10T16:39:19;7.78;;;6.70;;
11422;SDS011;5768;51.476;7.210;2023-05-10T16:44:21;8.75;;;7.90;;
11422;SDS011;5768;51.476;7.210;2023-05-10T16:49:25;9.88;;;8.88;;
11422;SDS011;5768;51.476;7.210;2023-05-10T16:54:27;10.77;;;9.77;;
11422;SDS011;5768;51.476;7.210;2023-05-10T16:59:30;10.88;;;9.90;;
11422;SDS011;5768;51.476;7.210;2023-05-10T17:04:33;11.95;;;10.85;;
11422;SDS011;5768;51.476;7.210;2023-05-10T17:09:35;11.90;;;10.70;;
11422;SDS011;5768;51.476;7.210;2023-05-10T17:14:38;13.10;;;11.80;;
11422;SDS011;5768;51.476;7.210;2023-05-10T17:19:44;12.07;;;10.98;;
11422;SDS011;5768;51.476;7.210;2023-05-10T17:24:47;10.85;;;9.70;;
11422;SDS011;5768;51.476;7.210;2023-05-10T17:29:49;11.90;;;10.80;;
11422;SDS011;5768;51.476;7.210;2023-05-10T17:34:57;10.52;;;9.48;;
11422;SDS011;5768;51.476;7.210;2023-05-10T17:40:00;10.30;;;9.40;;
11422;SDS011;5768;51.476;7.210;2023-05-10T17:45:05;9.57;;;8.68;;
11422;SDS011;5768;51.476;7.210;2023-05-10T17:50:10;8.32;;;7.47;;
11422;SDS011;5768;51.476;7.210;2023-05-10T17:55:12;9.20;;;8.38;;
11422;SDS011;5768;51.476;7.210;2023-05-10T18:00:15;8.50;;;7.70;;
11422;SDS011;5768;51.476;7.210;2023-05-10T18:05:19;9.43;;;7.38;;
11422;SDS011;5768;51.476;7.210;2023-05-10T18:10:22;7.78;;;7.07;;
11422;SDS011;5768;51.476;7.210;2023-05-10T18:15:25;9.05;;;8.02;;
11422;SDS011;5768;51.476;7.210;2023-05-10T18:20:29;7.25;;;6.32;;
11422;SDS011;5768;51.476;7.210;2023-05-10T18:25:31;6.95;;;6.25;;
11422;SDS011;5768;51.476;7.210;2023-05-10T18:30:33;6.03;;;5.47;;
11422;SDS011;5768;51.476;7.210;2023-05-10T18:35:37;5.78;;;5.03;;
11422;SDS011;5768;51.476;7.210;2023-05-10T18:40:40;7.25;;;5.57;;
11422;SDS011;5768;51.476;7.210;2023-05-10T18:45:43;5.40;;;4.90;;
11422;SDS011;5768;51.476;7.210;2023-05-10T18:50:46;6.22;;;4.95;;
11422;SDS011;5768;51.476;7.210;2023-05-10T18:55:53;5.05;;;4.65;;
11422;SDS011;5768;51.476;7.210;2023-05-10T19:00:57;5.13;;;4.30;;
11422;SDS011;5768;51.476;7.210;2023-05-10T19:06:01;4.93;;;4.10;;
11422;SDS011;5768;51.476;7.210;2023-05-10T19:11:03;4.25;;;3.72;;
11422;SDS011;5768;51.476;7.210;2023-05-10T19:16:09;5.43;;;4.40;;
11422;SDS011;5768;51.476;7.210;2023-05-10T19:21:14;8.43;;;5.55;;
11422;SDS011;5768;51.476;7.210;2023-05-10T19:26:16;9.85;;;6.22;;
11422;SDS011;5768;51.476;7.210;2023-05-10T19:31:18;9.82;;;6.47;;
11422;SDS011;5768;51.476;7.210;2023-05-10T19:36:23;9.05;;;6.78;;
11422;SDS011;5768;51.476;7.210;2023-05-10T19:41:25;8.60;;;7.60;;
11422;SDS011;5768;51.476;7.210;2023-05-10T19:46:28;8.70;;;7.65;;
11422;SDS011;5768;51.476;7.210;2023-05-10T19:51:32;9.07;;;7.93;;
11422;SDS011;5768;51.476;7.210;2023-05-10T19:56:34;9.85;;;8.85;;
11422;SDS011;5768;51.476;7.210;2023-05-10T20:01:37;10.05;;;8.45;;
11422;SDS011;5768;51.476;7.210;2023-05-10T20:06:40;11.95;;;9.32;;
11422;SDS011;5768;51.476;7.210;2023-05-10T20:11:42;11.30;;;9.48;;
11422;SDS011;5768;51.476;7.210;2023-05-10T20:16:44;12.05;;;10.32;;
11422;SDS011;5768;51.476;7.210;2023-05-10T20:21:48;12.55;;;10.43;;
11422;SDS011;5768;51.476;7.210;2023-05-10T20:26:50;11.20;;;10.15;;
11422;SDS011;5768;51.476;7.210;2023-05-10T20:31:53;12.77;;;10.30;;
11422;SDS011;5768;51.476;7.210;2023-05-10T20:36:56;15.23;;;10.98;;
11422;SDS011;5768;51.476;7.210;2023-05-10T20:41:59;12.98;;;11.20;;
11422;SDS011;5768;51.476;7.210;2023-05-10T20:47:01;13.82;;;11.85;;
11422;SDS011;5768;51.476;7.210;2023-05-10T20:52:05;13.90;;;12.40;;
11422;SDS011;5768;51.476;7.210;2023-05-10T20:57:08;11.45;;;10.27;;
11422;SDS011;5768;51.476;7.210;2023-05-10T21:02:11;10.73;;;9.63;;
11422;SDS011;5768;51.476;7.210;2023-05-10T21:07:15;10.07;;;9.13;;
11422;SDS011;5768;51.476;7.210;2023-05-10T21:12:17;13.05;;;9.85;;
11422;SDS011;5768;51.476;7.210;2023-05-10T21:17:23;11.32;;;10.13;;
11422;SDS011;5768;51.476;7.210;2023-05-10T21:22:26;12.23;;;9.93;;
11422;SDS011;5768;51.476;7.210;2023-05-10T21:27:28;12.05;;;9.73;;
11422;SDS011;5768;51.476;7.210;2023-05-10T21:32:31;11.05;;;9.93;;
11422;SDS011;5768;51.476;7.210;2023-05-10T21:37:43;10.48;;;9.48;;
11422;SDS011;5768;51.476;7.210;2023-05-10T21:42:45;13.02;;;10.98;;
11422;SDS011;5768;51.476;7.210;2023-05-10T21:47:48;12.32;;;10.45;;
11422;SDS011;5768;51.476;7.210;2023-05-10T21:52:52;11.10;;;10.10;;
11422;SDS011;5768;51.476;7.210;2023-05-10T21:57:54;12.63;;;10.65;;
11422;SDS011;5768;51.476;7.210;2023-05-10T22:02:57;13.60;;;12.02;;
11422;SDS011;5768;51.476;7.210;2023-05-10T22:08:01;13.18;;;11.88;;
11422;SDS011;5768;51.476;7.210;2023-05-10T22:13:03;13.82;;;12.43;;
11422;SDS011;5768;51.476;7.210;2023-05-10T22:18:05;14.82;;;13.48;;
11422;SDS011;5768;51.476;7.210;2023-05-10T22:23:09;14.70;;;12.27;;
11422;SDS011;5768;51.476;7.210;2023-05-10T22:28:12;13.88;;;12.10;;
11422;SDS011;5768;51.476;7.210;2023-05-10T22:33:14;14.75;;;12.32;;
11422;SDS011;5768;51.476;7.210;2023-05-10T22:38:18;14.02;;;12.63;;
11422;SDS011;5768;51.476;7.210;2023-05-10T22:43:21;14.88;;;13.13;;
11422;SDS011;5768;51.476;7.210;2023-05-10T22:48:23;15.85;;;13.90;;
11422;SDS011;5768;51.476;7.210;2023-05-10T22:53:27;16.33;;;14.18;;
11422;SDS011;5768;51.476;7.210;2023-05-10T22:58:29;16.00;;;13.88;;
11422;SDS011;5768;51.476;7.210;2023-05-10T23:03:32;15.65;;;14.02;;
11422;SDS011;5768;51.476;7.210;2023-05-10T23:08:35;19.42;;;15.40;;
11422;SDS011;5768;51.476;7.210;2023-05-10T23:13:38;18.02;;;16.13;;
11422;SDS011;5768;51.476;7.210;2023-05-10T23:18:40;18.17;;;16.20;;
11422;SDS011;5768;51.476;7.210;2023-05-10T23:23:43;21.38;;;17.45;;
11422;SDS011;5768;51.476;7.210;2023-05-10T23:28:46;19.05;;;16.98;;
11422;SDS011;5768;51.476;7.210;2023-05-10T23:33:48;21.63;;;17.10;;
11422;SDS011;5768;51.476;7.210;2023-05-10T23:38:51;22.73;;;19.95;;
11422;SDS011;5768;51.476;7.210;2023-05-10T23:43:54;23.98;;;20.15;;
11422;SDS011;5768;51.476;7.210;2023-05-10T23:48:56;23.60;;;19.75;;
11422;SDS011;5768;51.476;7.210;2023-05-10T23:54:00;22.52;;;19.02;;
11422;SDS011;5768;51.476;7.210;2023-05-10T23:59:02;23.08;;;19.05;;
